createdAt,value
2023-03-01T00:00:46.843Z,79.48
2023-03-01T00:01:46.899Z,79.90
2023-03-01T00:02:46.852Z,79.58
2023-03-01T00:03:46.853Z,79.80
2023-03-01T00:04:47.814Z,79.48
2023-03-01T00:05:46.827Z,79.69
2023-03-01T00:06:46.836Z,80.00
2023-03-01T00:07:46.771Z,79.80
2023-03-01T00:08:46.794Z,80.00
2023-03-01T00:09:46.750Z,80.11
2023-03-01T00:10:46.796Z,80.22
2023-03-01T00:11:46.778Z,80.22
2023-03-01T00:12:46.744Z,80.00
2023-03-01T00:13:46.712Z,80.88
2023-03-01T00:14:46.730Z,80.53
2023-03-01T00:15:46.718Z,80.46
2023-03-01T00:16:46.714Z,80.88
2023-03-01T00:17:46.697Z,81.20
2023-03-01T00:18:46.706Z,80.46
2023-03-01T00:19:46.658Z,80.88
2023-03-01T00:20:46.648Z,80.78
2023-03-01T00:21:46.660Z,81.02
2023-03-01T00:22:46.639Z,81.55
2023-03-01T00:23:46.618Z,81.45
2023-03-01T00:24:46.601Z,82.07
2023-03-01T00:25:46.614Z,81.97
2023-03-01T00:26:46.588Z,82.71
2023-03-01T00:27:46.557Z,82.29
2023-03-01T00:28:46.574Z,82.88
2023-03-01T00:29:46.578Z,82.71
2023-03-01T00:30:46.606Z,82.81
2023-03-01T00:31:46.544Z,83.02
2023-03-01T00:32:46.542Z,83.13
2023-03-01T00:33:46.501Z,83.86
2023-03-01T00:34:46.497Z,84.18
2023-03-01T00:35:46.611Z,83.51
2023-03-01T00:36:46.491Z,83.34
2023-03-01T00:37:46.468Z,83.54
2023-03-01T00:38:46.466Z,83.76
2023-03-01T00:39:46.476Z,83.54
2023-03-01T00:40:46.444Z,83.76
2023-03-01T00:41:46.464Z,83.34
2023-03-01T00:42:46.434Z,82.92
2023-03-01T00:43:46.409Z,82.71
2023-03-01T00:44:46.403Z,82.81
2023-03-01T00:45:46.694Z,82.50
2023-03-01T00:46:46.408Z,82.18
2023-03-01T00:47:46.355Z,82.32
2023-03-01T00:48:46.386Z,82.22
2023-03-01T00:49:46.333Z,82.53
2023-03-01T00:50:46.334Z,82.53
2023-03-01T00:51:46.347Z,82.85
2023-03-01T00:52:46.318Z,83.02
2023-03-01T00:53:46.297Z,83.06
2023-03-01T00:54:46.287Z,83.06
2023-03-01T00:55:46.309Z,82.53
2023-03-01T00:56:46.238Z,82.53
2023-03-01T00:57:46.274Z,83.34
2023-03-01T00:58:46.272Z,82.29
2023-03-01T00:59:46.236Z,82.18
2023-03-01T01:00:46.225Z,81.83
2023-03-01T01:01:46.256Z,81.73
2023-03-01T01:02:46.287Z,82.14
2023-03-01T01:03:46.198Z,81.51
2023-03-01T01:04:46.202Z,82.25
2023-03-01T01:05:46.168Z,81.20
2023-03-01T01:06:46.166Z,81.83
2023-03-01T01:07:46.170Z,81.73
2023-03-01T01:08:46.143Z,82.25
2023-03-01T01:09:46.115Z,82.25
2023-03-01T01:10:46.125Z,81.30
2023-03-01T01:11:46.147Z,82.07
2023-03-01T01:12:46.081Z,82.35
2023-03-01T01:13:46.100Z,81.93
2023-03-01T01:14:46.079Z,82.18
2023-03-01T01:15:46.083Z,82.18
2023-03-01T01:16:46.069Z,82.29
2023-03-01T01:17:46.061Z,81.65
2023-03-01T01:18:46.036Z,81.73
2023-03-01T01:19:46.006Z,81.24
2023-03-01T01:20:46.031Z,80.92
2023-03-01T01:21:46.063Z,80.50
2023-03-01T01:22:45.992Z,81.13
2023-03-01T01:23:45.996Z,80.82
2023-03-01T01:24:45.972Z,80.75
2023-03-01T01:25:45.938Z,80.85
2023-03-01T01:26:45.957Z,81.80
2023-03-01T01:27:45.952Z,81.38
2023-03-01T01:28:45.927Z,81.90
2023-03-01T01:29:45.898Z,81.76
2023-03-01T01:30:45.916Z,81.48
2023-03-01T01:31:45.929Z,81.38
2023-03-01T01:32:45.889Z,81.52
2023-03-01T01:33:45.861Z,82.68
2023-03-01T01:34:45.860Z,83.27
2023-03-01T01:35:45.880Z,82.85
2023-03-01T01:36:45.838Z,81.80
2023-03-01T01:37:45.844Z,82.50
2023-03-01T01:38:45.822Z,82.75
2023-03-01T01:39:45.803Z,81.90
2023-03-01T01:40:45.799Z,81.80
2023-03-01T01:41:45.810Z,82.01
2023-03-01T01:42:45.787Z,81.90
2023-03-01T01:43:45.754Z,81.59
2023-03-01T01:44:45.762Z,82.11
2023-03-01T01:45:45.744Z,82.64
2023-03-01T01:46:45.766Z,82.50
2023-03-01T01:47:45.749Z,82.43
2023-03-01T01:48:45.722Z,82.01
2023-03-01T01:49:45.688Z,81.62
2023-03-01T01:50:45.683Z,82.04
2023-03-01T01:51:45.812Z,82.68
2023-03-01T01:52:45.670Z,82.92
2023-03-01T01:53:45.672Z,83.34
2023-03-01T01:54:45.652Z,83.76
2023-03-01T01:55:45.627Z,83.66
2023-03-01T01:56:45.632Z,83.34
2023-03-01T01:57:45.631Z,83.76
2023-03-01T01:58:45.614Z,83.76
2023-03-01T01:59:45.594Z,83.28
2023-03-01T02:00:45.585Z,83.14
2023-03-01T02:01:45.603Z,83.39
2023-03-01T02:02:45.732Z,82.86
2023-03-01T02:03:45.773Z,83.28
2023-03-01T02:04:45.543Z,83.59
2023-03-01T02:05:45.563Z,84.27
2023-03-01T02:06:45.550Z,83.70
2023-03-01T02:07:45.510Z,84.33
2023-03-01T02:08:45.539Z,83.76
2023-03-01T02:09:45.479Z,83.76
2023-03-01T02:10:45.497Z,83.41
2023-03-01T02:11:45.511Z,82.78
2023-03-01T02:12:45.470Z,82.89
2023-03-01T02:13:45.443Z,82.53
2023-03-01T02:14:45.444Z,82.11
2023-03-01T02:15:45.481Z,81.59
2023-03-01T02:16:45.424Z,81.90
2023-03-01T02:17:45.434Z,81.70
2023-03-01T02:18:45.408Z,82.53
2023-03-01T02:19:45.376Z,81.59
2023-03-01T02:20:45.388Z,81.20
2023-03-01T02:21:45.386Z,81.16
2023-03-01T02:22:45.358Z,81.84
2023-03-01T02:23:45.350Z,82.46
2023-03-01T02:24:45.357Z,82.36
2023-03-01T02:25:45.321Z,82.57
2023-03-01T02:26:45.316Z,82.57
2023-03-01T02:27:45.354Z,82.36
2023-03-01T02:28:45.295Z,82.36
2023-03-01T02:29:45.283Z,81.87
2023-03-01T02:30:45.269Z,82.54
2023-03-01T02:31:45.276Z,82.12
2023-03-01T02:32:45.268Z,82.01
2023-03-01T02:33:45.222Z,83.00
2023-03-01T02:34:45.217Z,82.79
2023-03-01T02:35:46.270Z,82.89
2023-03-01T02:36:45.213Z,83.91
2023-03-01T02:37:45.196Z,84.23
2023-03-01T02:38:45.198Z,84.16
2023-03-01T02:39:45.207Z,84.05
2023-03-01T02:40:45.156Z,84.47
2023-03-01T02:41:45.181Z,84.75
2023-03-01T02:42:45.155Z,84.27
2023-03-01T02:43:45.139Z,85.11
2023-03-01T02:44:45.138Z,85.31
2023-03-01T02:45:45.152Z,86.02
2023-03-01T02:46:45.141Z,85.70
2023-03-01T02:47:45.091Z,85.49
2023-03-01T02:48:45.114Z,85.03
2023-03-01T02:49:45.083Z,84.71
2023-03-01T02:50:45.069Z,84.29
2023-03-01T02:51:45.070Z,83.98
2023-03-01T02:52:45.050Z,84.29
2023-03-01T02:53:45.037Z,83.73
2023-03-01T02:54:45.036Z,83.41
2023-03-01T02:55:45.040Z,83.62
2023-03-01T02:56:44.990Z,83.20
2023-03-01T02:57:45.010Z,83.17
2023-03-01T02:58:44.986Z,82.85
2023-03-01T02:59:44.970Z,83.06
2023-03-01T03:00:45.005Z,82.22
2023-03-01T03:01:46.521Z,82.32
2023-03-01T03:02:44.944Z,82.43
2023-03-01T03:03:45.189Z,82.11
2023-03-01T03:04:44.961Z,82.78
2023-03-01T03:05:44.941Z,82.68
2023-03-01T03:06:44.901Z,82.89
2023-03-01T03:07:44.880Z,83.10
2023-03-01T03:08:44.895Z,82.68
2023-03-01T03:09:44.899Z,83.62
2023-03-01T03:10:44.877Z,83.73
2023-03-01T03:11:44.843Z,84.05
2023-03-01T03:12:44.863Z,83.98
2023-03-01T03:13:44.820Z,83.83
2023-03-01T03:14:44.819Z,84.08
2023-03-01T03:15:44.857Z,84.19
2023-03-01T03:16:44.841Z,84.40
2023-03-01T03:17:46.342Z,84.61
2023-03-01T03:18:44.785Z,84.61
2023-03-01T03:19:44.787Z,84.61
2023-03-01T03:20:44.764Z,84.71
2023-03-01T03:21:44.802Z,84.82
2023-03-01T03:22:44.741Z,84.71
2023-03-01T03:23:44.708Z,84.61
2023-03-01T03:24:44.746Z,85.13
2023-03-01T03:25:44.741Z,85.35
2023-03-01T03:26:44.705Z,85.13
2023-03-01T03:27:44.687Z,85.13
2023-03-01T03:28:44.716Z,85.03
2023-03-01T03:29:44.670Z,85.45
2023-03-01T03:30:44.675Z,85.49
2023-03-01T03:31:44.719Z,85.55
2023-03-01T03:32:44.658Z,85.77
2023-03-01T03:33:44.608Z,85.55
2023-03-01T03:34:44.621Z,85.35
2023-03-01T03:35:44.746Z,85.87
2023-03-01T03:36:44.592Z,85.66
2023-03-01T03:37:44.581Z,85.35
2023-03-01T03:38:44.592Z,85.20
2023-03-01T03:39:44.581Z,84.92
2023-03-01T03:40:44.580Z,84.92
2023-03-01T03:41:44.564Z,84.82
2023-03-01T03:42:44.528Z,84.92
2023-03-01T03:43:44.536Z,85.03
2023-03-01T03:44:44.529Z,85.03
2023-03-01T03:45:44.556Z,84.67
2023-03-01T03:46:44.521Z,84.67
2023-03-01T03:47:44.500Z,84.57
2023-03-01T03:48:44.462Z,84.36
2023-03-01T03:49:44.500Z,84.36
2023-03-01T03:50:44.490Z,84.25
2023-03-01T03:51:44.433Z,84.36
2023-03-01T03:52:44.448Z,84.36
2023-03-01T03:53:44.433Z,84.36
2023-03-01T03:54:44.414Z,84.15
2023-03-01T03:55:44.436Z,84.25
2023-03-01T03:56:44.396Z,84.47
2023-03-01T03:57:45.360Z,84.29
2023-03-01T03:58:44.383Z,84.71
2023-03-01T03:59:44.417Z,84.82
2023-03-01T04:00:44.342Z,84.92
2023-03-01T04:01:44.367Z,85.13
2023-03-01T04:02:44.361Z,85.24
2023-03-01T04:03:44.331Z,85.24
2023-03-01T04:04:44.300Z,84.92
2023-03-01T04:05:44.327Z,84.82
2023-03-01T04:06:44.313Z,85.03
2023-03-01T04:07:44.259Z,85.45
2023-03-01T04:08:44.297Z,85.35
2023-03-01T04:09:44.297Z,85.24
2023-03-01T04:10:44.248Z,85.13
2023-03-01T04:11:44.219Z,84.71
2023-03-01T04:12:44.246Z,85.24
2023-03-01T04:13:44.241Z,85.03
2023-03-01T04:14:44.229Z,85.24
2023-03-01T04:15:44.199Z,85.35
2023-03-01T04:16:44.226Z,84.92
2023-03-01T04:17:44.145Z,84.82
2023-03-01T04:18:44.233Z,84.82
2023-03-01T04:19:44.156Z,84.71
2023-03-01T04:20:44.135Z,84.82
2023-03-01T04:21:44.144Z,84.61
2023-03-01T04:22:44.114Z,84.61
2023-03-01T04:23:44.141Z,85.24
2023-03-01T04:24:44.113Z,85.03
2023-03-01T04:25:44.114Z,85.03
2023-03-01T04:26:44.085Z,85.24
2023-03-01T04:27:44.083Z,85.13
2023-03-01T04:28:44.062Z,85.17
2023-03-01T04:29:44.060Z,85.13
2023-03-01T04:30:44.062Z,85.35
2023-03-01T04:31:44.100Z,85.45
2023-03-01T04:32:44.050Z,85.17
2023-03-01T04:33:44.009Z,85.07
2023-03-01T04:34:43.989Z,85.17
2023-03-01T04:35:44.067Z,85.03
2023-03-01T04:36:44.125Z,85.07
2023-03-01T04:37:43.942Z,85.28
2023-03-01T04:38:43.951Z,85.38
2023-03-01T04:39:43.969Z,85.35
2023-03-01T04:40:43.928Z,85.49
2023-03-01T04:41:50.646Z,85.07
2023-03-01T04:42:43.940Z,85.17
2023-03-01T04:43:43.944Z,85.03
2023-03-01T04:44:43.889Z,85.13
2023-03-01T04:45:43.998Z,85.03
2023-03-01T04:46:43.863Z,84.96
2023-03-01T04:47:43.876Z,85.28
2023-03-01T04:48:43.862Z,85.03
2023-03-01T04:49:43.863Z,85.13
2023-03-01T04:50:43.826Z,85.13
2023-03-01T04:51:43.837Z,85.03
2023-03-01T04:52:43.796Z,85.03
2023-03-01T04:53:43.815Z,85.13
2023-03-01T04:54:43.775Z,84.71
2023-03-01T04:55:43.793Z,84.92
2023-03-01T04:56:43.774Z,85.03
2023-03-01T04:57:43.728Z,84.82
2023-03-01T04:58:43.783Z,85.03
2023-03-01T04:59:43.742Z,84.92
2023-03-01T05:00:43.717Z,84.82
2023-03-01T05:01:43.730Z,85.13
2023-03-01T05:02:43.731Z,84.92
2023-03-01T05:03:43.702Z,84.92
2023-03-01T05:04:43.726Z,85.03
2023-03-01T05:05:43.701Z,84.50
2023-03-01T05:06:43.661Z,84.61
2023-03-01T05:07:43.661Z,84.71
2023-03-01T05:08:43.635Z,84.71
2023-03-01T05:09:43.635Z,84.71
2023-03-01T05:10:43.634Z,84.71
2023-03-01T05:11:43.593Z,84.71
2023-03-01T05:12:43.587Z,84.61
2023-03-01T05:13:43.605Z,84.61
2023-03-01T05:14:43.574Z,84.75
2023-03-01T05:15:43.593Z,84.82
2023-03-01T05:16:43.586Z,84.92
2023-03-01T05:17:43.528Z,84.50
2023-03-01T05:18:43.550Z,84.82
2023-03-01T05:19:43.549Z,84.75
2023-03-01T05:20:43.498Z,84.65
2023-03-01T05:21:43.516Z,85.07
2023-03-01T05:22:43.526Z,85.17
2023-03-01T05:23:43.473Z,85.17
2023-03-01T05:24:43.465Z,85.38
2023-03-01T05:25:43.499Z,85.60
2023-03-01T05:26:43.886Z,85.60
2023-03-01T05:27:43.442Z,85.77
2023-03-01T05:28:43.467Z,85.49
2023-03-01T05:29:43.416Z,85.42
2023-03-01T05:30:43.449Z,85.49
2023-03-01T05:31:43.447Z,86.02
2023-03-01T05:32:43.385Z,85.91
2023-03-01T05:33:44.360Z,85.70
2023-03-01T05:34:43.387Z,85.91
2023-03-01T05:35:43.533Z,86.12
2023-03-01T05:36:43.336Z,85.91
2023-03-01T05:37:43.359Z,85.70
2023-03-01T05:38:43.337Z,85.38
2023-03-01T05:39:43.300Z,85.77
2023-03-01T05:40:43.309Z,85.45
2023-03-01T05:41:43.322Z,85.55
2023-03-01T05:42:43.280Z,85.17
2023-03-01T05:43:43.254Z,85.17
2023-03-01T05:44:43.293Z,85.49
2023-03-01T05:45:43.314Z,85.38
2023-03-01T05:46:43.253Z,85.60
2023-03-01T05:47:43.213Z,85.60
2023-03-01T05:48:43.245Z,85.49
2023-03-01T05:49:43.225Z,85.49
2023-03-01T05:50:44.201Z,85.70
2023-03-01T05:51:43.204Z,85.70
2023-03-01T05:52:43.185Z,85.70
2023-03-01T05:53:43.149Z,85.53
2023-03-01T05:54:43.189Z,85.91
2023-03-01T05:55:43.161Z,85.70
2023-03-01T05:56:43.143Z,86.02
2023-03-01T05:57:43.157Z,86.02
2023-03-01T05:58:43.112Z,86.27
2023-03-01T05:59:43.134Z,86.22
2023-03-01T06:00:43.103Z,86.02
2023-03-01T06:01:43.098Z,86.27
2023-03-01T06:02:43.077Z,86.69
2023-03-01T06:03:43.070Z,86.79
2023-03-01T06:04:43.197Z,86.69
2023-03-01T06:05:43.092Z,86.69
2023-03-01T06:06:43.058Z,87.00
2023-03-01T06:07:43.006Z,86.79
2023-03-01T06:08:43.051Z,86.79
2023-03-01T06:09:43.012Z,87.42
2023-03-01T06:10:42.995Z,87.11
2023-03-01T06:11:43.006Z,87.63
2023-03-01T06:12:43.029Z,87.42
2023-03-01T06:13:42.960Z,86.69
2023-03-01T06:14:42.964Z,87.00
2023-03-01T06:15:42.996Z,87.42
2023-03-01T06:16:42.944Z,87.85
2023-03-01T06:17:42.901Z,87.74
2023-03-01T06:18:42.966Z,87.95
2023-03-01T06:19:42.918Z,88.20
2023-03-01T06:20:42.893Z,88.20
2023-03-01T06:21:42.872Z,88.20
2023-03-01T06:22:42.877Z,87.85
2023-03-01T06:23:42.882Z,87.63
2023-03-01T06:24:42.877Z,87.85
2023-03-01T06:25:42.853Z,88.27
2023-03-01T06:26:42.834Z,87.81
2023-03-01T06:27:42.863Z,87.95
2023-03-01T06:28:42.812Z,87.42
2023-03-01T06:29:42.838Z,87.38
2023-03-01T06:30:42.820Z,87.21
2023-03-01T06:31:42.764Z,87.81
2023-03-01T06:32:42.807Z,87.85
2023-03-01T06:33:42.749Z,88.16
2023-03-01T06:34:42.755Z,87.74
2023-03-01T06:35:42.817Z,87.38
2023-03-01T06:36:42.726Z,87.45
2023-03-01T06:37:42.702Z,86.71
2023-03-01T06:38:42.741Z,86.08
2023-03-01T06:39:42.703Z,85.97
2023-03-01T06:40:42.684Z,85.87
2023-03-01T06:41:42.722Z,86.29
2023-03-01T06:42:42.665Z,85.73
2023-03-01T06:43:42.653Z,85.77
2023-03-01T06:44:42.668Z,85.62
2023-03-01T06:45:42.659Z,85.62
2023-03-01T06:46:42.697Z,85.62
2023-03-01T06:47:42.632Z,85.48
2023-03-01T06:48:42.598Z,84.95
2023-03-01T06:49:42.614Z,84.84
2023-03-01T06:50:42.686Z,84.74
2023-03-01T06:51:42.565Z,84.84
2023-03-01T06:52:42.566Z,84.74
2023-03-01T06:53:42.589Z,85.06
2023-03-01T06:54:42.540Z,84.84
2023-03-01T06:55:42.535Z,84.64
2023-03-01T06:56:42.540Z,84.32
2023-03-01T06:57:42.485Z,84.39
2023-03-01T06:58:42.496Z,84.49
2023-03-01T06:59:42.522Z,84.28
2023-03-01T07:00:42.474Z,83.76
2023-03-01T07:01:42.466Z,83.76
2023-03-01T07:02:42.551Z,83.65
2023-03-01T07:03:42.455Z,83.44
2023-03-01T07:04:42.415Z,83.83
2023-03-01T07:05:42.449Z,83.65
2023-03-01T07:06:42.440Z,83.51
2023-03-01T07:07:42.396Z,82.98
2023-03-01T07:08:42.411Z,83.15
2023-03-01T07:09:42.396Z,82.42
2023-03-01T07:10:42.372Z,83.09
2023-03-01T07:11:42.385Z,82.63
2023-03-01T07:12:42.376Z,82.42
2023-03-01T07:13:42.321Z,82.63
2023-03-01T07:14:42.373Z,82.17
2023-03-01T07:15:42.362Z,81.34
2023-03-01T07:16:42.312Z,81.86
2023-03-01T07:17:42.329Z,82.07
2023-03-01T07:18:42.272Z,82.28
2023-03-01T07:19:42.305Z,81.61
2023-03-01T07:20:42.314Z,80.98
2023-03-01T07:21:42.277Z,81.20
2023-03-01T07:22:42.257Z,81.20
2023-03-01T07:23:42.269Z,81.20
2023-03-01T07:24:42.227Z,81.34
2023-03-01T07:25:43.130Z,81.30
2023-03-01T07:26:42.224Z,80.77
2023-03-01T07:27:42.182Z,80.35
2023-03-01T07:28:42.197Z,80.77
2023-03-01T07:29:42.166Z,81.30
2023-03-01T07:30:42.155Z,80.32
2023-03-01T07:31:42.171Z,80.53
2023-03-01T07:32:42.220Z,80.74
2023-03-01T07:33:42.118Z,79.90
2023-03-01T07:34:42.143Z,79.79
2023-03-01T07:35:42.174Z,79.90
2023-03-01T07:36:42.069Z,79.48
2023-03-01T07:37:42.084Z,79.27
2023-03-01T07:38:42.103Z,79.58
2023-03-01T07:39:42.054Z,79.48
2023-03-01T07:40:42.044Z,79.48
2023-03-01T07:41:42.077Z,79.86
2023-03-01T07:42:42.039Z,79.55
2023-03-01T07:43:42.011Z,79.09
2023-03-01T07:44:42.063Z,78.81
2023-03-01T07:45:42.001Z,78.60
2023-03-01T07:46:42.000Z,77.73
2023-03-01T07:47:41.996Z,77.62
2023-03-01T07:48:41.964Z,77.73
2023-03-01T07:49:41.930Z,78.15
2023-03-01T07:50:41.980Z,78.25
2023-03-01T07:51:41.943Z,77.73
2023-03-01T07:52:41.926Z,77.31
2023-03-01T07:53:41.892Z,77.00
2023-03-01T07:54:41.925Z,77.31
2023-03-01T07:55:41.993Z,77.42
2023-03-01T07:56:41.902Z,77.20
2023-03-01T07:57:41.889Z,77.00
2023-03-01T07:58:41.850Z,77.94
2023-03-01T07:59:41.876Z,77.31
2023-03-01T08:00:41.833Z,77.00
2023-03-01T08:01:41.865Z,77.20
2023-03-01T08:02:41.833Z,77.31
2023-03-01T08:03:41.797Z,77.31
2023-03-01T08:04:41.814Z,76.96
2023-03-01T08:05:41.809Z,77.17
2023-03-01T08:06:41.773Z,76.54
2023-03-01T08:07:41.768Z,76.86
2023-03-01T08:08:41.773Z,77.38
2023-03-01T08:09:41.716Z,77.07
2023-03-01T08:10:41.732Z,76.86
2023-03-01T08:11:41.771Z,76.86
2023-03-01T08:12:41.725Z,76.93
2023-03-01T08:13:41.728Z,76.02
2023-03-01T08:14:41.692Z,76.51
2023-03-01T08:15:41.683Z,75.63
2023-03-01T08:16:41.729Z,75.78
2023-03-01T08:17:41.677Z,76.72
2023-03-01T08:18:41.642Z,75.98
2023-03-01T08:19:41.625Z,75.78
2023-03-01T08:20:41.606Z,76.09
2023-03-01T08:21:41.619Z,76.79
2023-03-01T08:22:41.616Z,76.47
2023-03-01T08:23:41.590Z,76.23
2023-03-01T08:24:41.573Z,75.71
2023-03-01T08:25:41.583Z,75.39
2023-03-01T08:26:41.556Z,75.81
2023-03-01T08:27:41.534Z,75.92
2023-03-01T08:28:41.520Z,76.16
2023-03-01T08:29:41.547Z,75.71
2023-03-01T08:30:41.520Z,75.39
2023-03-01T08:31:41.566Z,76.40
2023-03-01T08:32:41.543Z,75.39
2023-03-01T08:33:41.476Z,75.39
2023-03-01T08:34:42.583Z,75.36
2023-03-01T08:35:41.509Z,75.04
2023-03-01T08:36:41.462Z,74.31
2023-03-01T08:37:41.441Z,74.31
2023-03-01T08:38:41.435Z,74.52
2023-03-01T08:39:41.488Z,74.18
2023-03-01T08:40:41.400Z,73.83
2023-03-01T08:41:41.433Z,74.07
2023-03-01T08:42:41.394Z,73.83
2023-03-01T08:43:41.358Z,73.20
2023-03-01T08:44:41.367Z,72.23
2023-03-01T08:45:41.414Z,71.70
2023-03-01T08:46:41.358Z,72.02
2023-03-01T08:47:41.326Z,72.13
2023-03-01T08:48:41.355Z,71.50
2023-03-01T08:49:41.296Z,71.19
2023-03-01T08:50:42.433Z,72.47
2023-03-01T08:51:42.327Z,72.58
2023-03-01T08:52:41.283Z,72.89
2023-03-01T08:53:41.261Z,73.27
2023-03-01T08:54:41.278Z,74.21
2023-03-01T08:55:41.269Z,72.75
2023-03-01T08:56:41.257Z,72.02
2023-03-01T08:57:41.227Z,72.96
2023-03-01T08:58:41.212Z,73.03
2023-03-01T08:59:41.228Z,70.73
2023-03-01T09:00:41.203Z,70.28
2023-03-01T09:01:41.205Z,70.91
2023-03-01T09:02:41.172Z,70.39
2023-03-01T09:03:41.208Z,70.39
2023-03-01T09:04:41.151Z,70.60
2023-03-01T09:05:41.166Z,68.51
2023-03-01T09:06:41.166Z,69.42
2023-03-01T09:07:41.123Z,68.48
2023-03-01T09:08:41.125Z,67.65
2023-03-01T09:09:41.138Z,68.35
2023-03-01T09:10:41.120Z,68.45
2023-03-01T09:11:41.072Z,68.10
2023-03-01T09:12:41.105Z,67.90
2023-03-01T09:13:43.882Z,68.32
2023-03-01T09:14:41.057Z,67.79
2023-03-01T09:15:41.110Z,66.86
2023-03-01T09:16:41.113Z,67.07
2023-03-01T09:17:41.009Z,67.65
2023-03-01T09:18:41.028Z,67.65
2023-03-01T09:19:41.030Z,67.61
2023-03-01T09:20:41.003Z,67.51
2023-03-01T09:21:41.444Z,67.07
2023-03-01T09:22:41.978Z,67.38
2023-03-01T09:23:40.949Z,66.72
2023-03-01T09:24:40.964Z,66.83
2023-03-01T09:25:40.968Z,67.76
2023-03-01T09:26:40.983Z,66.90
2023-03-01T09:27:40.917Z,65.65
2023-03-01T09:28:40.942Z,65.86
2023-03-01T09:29:40.886Z,66.69
2023-03-01T09:30:41.927Z,66.59
2023-03-01T09:31:40.909Z,65.03
2023-03-01T09:32:40.881Z,65.86
2023-03-01T09:33:40.853Z,65.75
2023-03-01T09:34:40.863Z,66.14
2023-03-01T09:35:40.895Z,65.90
2023-03-01T09:36:40.820Z,65.69
2023-03-01T09:37:40.859Z,66.28
2023-03-01T09:38:40.823Z,65.72
2023-03-01T09:39:40.810Z,65.86
2023-03-01T09:40:40.801Z,65.86
2023-03-01T09:41:40.818Z,66.80
2023-03-01T09:42:40.795Z,66.59
2023-03-01T09:43:40.752Z,65.00
2023-03-01T09:44:40.779Z,64.69
2023-03-01T09:45:40.729Z,65.28
2023-03-01T09:46:40.771Z,64.45
2023-03-01T09:47:40.737Z,63.90
2023-03-01T09:48:40.727Z,64.62
2023-03-01T09:49:40.706Z,64.83
2023-03-01T09:50:40.685Z,64.83
2023-03-01T09:51:40.720Z,64.83
2023-03-01T09:52:40.656Z,65.04
2023-03-01T09:53:40.676Z,64.42
2023-03-01T09:54:40.676Z,64.31
2023-03-01T09:55:40.630Z,63.79
2023-03-01T09:56:40.668Z,63.45
2023-03-01T09:57:40.648Z,63.94
2023-03-01T09:58:40.617Z,63.35
2023-03-01T09:59:40.615Z,62.90
2023-03-01T10:00:40.601Z,63.14
2023-03-01T10:01:40.597Z,63.24
2023-03-01T10:02:40.667Z,62.76
2023-03-01T10:03:40.605Z,62.99
2023-03-01T10:04:40.633Z,63.69
2023-03-01T10:05:40.564Z,63.09
2023-03-01T10:06:40.552Z,63.20
2023-03-01T10:07:40.502Z,64.11
2023-03-01T10:08:40.546Z,63.87
2023-03-01T10:09:40.526Z,62.62
2023-03-01T10:10:40.479Z,63.01
2023-03-01T10:11:41.594Z,63.11
2023-03-01T10:12:40.471Z,63.42
2023-03-01T10:13:40.470Z,63.19
2023-03-01T10:14:40.438Z,62.70
2023-03-01T10:15:40.503Z,61.43
2023-03-01T10:16:40.406Z,61.08
2023-03-01T10:17:40.438Z,61.45
2023-03-01T10:18:40.423Z,61.35
2023-03-01T10:19:40.388Z,63.21
2023-03-01T10:20:40.381Z,63.73
2023-03-01T10:21:40.381Z,63.19
2023-03-01T10:22:40.362Z,62.64
2023-03-01T10:23:40.385Z,62.61
2023-03-01T10:24:40.365Z,61.29
2023-03-01T10:25:42.499Z,60.67
2023-03-01T10:26:40.322Z,61.19
2023-03-01T10:27:40.330Z,61.29
2023-03-01T10:28:40.309Z,62.67
2023-03-01T10:29:40.303Z,62.74
2023-03-01T10:30:40.403Z,62.33
2023-03-01T10:31:40.361Z,61.16
2023-03-01T10:32:40.261Z,60.82
2023-03-01T10:33:40.234Z,59.37
2023-03-01T10:34:40.227Z,60.20
2023-03-01T10:35:40.292Z,61.19
2023-03-01T10:36:40.233Z,60.74
2023-03-01T10:37:40.216Z,59.99
2023-03-01T10:38:40.196Z,59.94
2023-03-01T10:39:40.194Z,60.85
2023-03-01T10:40:40.152Z,61.13
2023-03-01T10:41:40.197Z,59.47
2023-03-01T10:42:40.184Z,58.85
2023-03-01T10:43:40.133Z,58.85
2023-03-01T10:44:40.132Z,59.37
2023-03-01T10:45:40.143Z,59.78
2023-03-01T10:46:40.460Z,60.67
2023-03-01T10:47:40.110Z,62.82
2023-03-01T10:48:40.125Z,61.24
2023-03-01T10:49:40.059Z,58.85
2023-03-01T10:50:42.201Z,59.34
2023-03-01T10:51:41.072Z,58.20
2023-03-01T10:52:40.109Z,60.72
2023-03-01T10:53:40.047Z,60.20
2023-03-01T10:54:40.028Z,59.03
2023-03-01T10:55:40.065Z,58.28
2023-03-01T10:56:39.993Z,58.38
2023-03-01T10:57:42.417Z,59.31
2023-03-01T10:58:41.007Z,59.11
2023-03-01T10:59:39.966Z,58.41
2023-03-01T11:00:39.983Z,59.37
2023-03-01T11:01:39.995Z,59.50
2023-03-01T11:02:40.027Z,59.37
2023-03-01T11:03:39.915Z,59.78
2023-03-01T11:04:39.984Z,58.31
2023-03-01T11:05:39.952Z,57.14
2023-03-01T11:06:39.901Z,56.70
2023-03-01T11:07:39.886Z,56.08
2023-03-01T11:08:39.881Z,56.26
2023-03-01T11:09:39.914Z,56.03
2023-03-01T11:10:39.855Z,55.82
2023-03-01T11:11:39.843Z,55.85
2023-03-01T11:12:39.884Z,55.87
2023-03-01T11:13:39.870Z,56.91
2023-03-01T11:14:39.808Z,56.77
2023-03-01T11:15:39.847Z,56.77
2023-03-01T11:16:39.797Z,55.93
2023-03-01T11:17:53.546Z,54.55
2023-03-01T11:18:48.228Z,54.45
2023-03-01T11:19:45.223Z,54.58
2023-03-01T11:20:40.764Z,55.51
2023-03-01T11:21:39.771Z,55.93
2023-03-01T11:22:39.745Z,56.24
2023-03-01T11:23:39.708Z,55.93
2023-03-01T11:24:41.659Z,55.51
2023-03-01T11:25:39.754Z,56.65
2023-03-01T11:26:39.712Z,56.98
2023-03-01T11:27:40.168Z,56.54
2023-03-01T11:28:40.697Z,56.65
2023-03-01T11:29:48.487Z,56.96
2023-03-01T11:30:41.676Z,57.73
2023-03-01T11:31:46.564Z,57.53
2023-03-01T11:32:41.797Z,57.79
2023-03-01T11:33:39.609Z,57.24
2023-03-01T11:34:39.615Z,57.12
2023-03-01T11:35:39.630Z,57.01
2023-03-01T11:36:39.641Z,56.81
2023-03-01T11:37:39.563Z,56.91
2023-03-01T11:38:39.563Z,58.59
2023-03-01T11:39:39.584Z,58.07
2023-03-01T11:40:39.572Z,57.24
2023-03-01T11:41:39.532Z,58.00
2023-03-01T11:42:39.525Z,59.31
2023-03-01T11:43:39.523Z,59.70
2023-03-01T11:44:39.500Z,59.36
2023-03-01T11:45:39.515Z,60.19
2023-03-01T11:46:39.593Z,58.89
2023-03-01T11:47:39.630Z,56.29
2023-03-01T11:48:48.751Z,54.53
2023-03-01T11:49:41.494Z,54.30
2023-03-01T11:50:39.498Z,53.06
2023-03-01T11:51:39.485Z,54.04
2023-03-01T11:52:39.454Z,56.03
2023-03-01T11:53:39.443Z,56.34
2023-03-01T11:54:39.396Z,56.29
2023-03-01T11:55:39.405Z,54.55
2023-03-01T11:56:39.388Z,56.60
2023-03-01T11:57:43.963Z,54.76
2023-03-01T11:58:40.388Z,55.59
2023-03-01T11:59:39.393Z,55.98
2023-03-01T12:00:39.355Z,56.26
2023-03-01T12:01:42.334Z,53.47
2023-03-01T12:02:40.338Z,52.57
2023-03-01T12:03:40.287Z,53.08
2023-03-01T12:04:39.358Z,52.75
2023-03-01T12:05:39.312Z,52.42
2023-03-01T12:06:39.273Z,52.21
2023-03-01T12:07:39.252Z,53.06
2023-03-01T12:08:39.255Z,54.32
2023-03-01T12:09:39.276Z,54.84
2023-03-01T12:10:39.244Z,55.36
2023-03-01T12:11:39.230Z,57.04
2023-03-01T12:12:39.207Z,58.07
2023-03-01T12:13:39.621Z,56.62
2023-03-01T12:14:39.214Z,57.86
2023-03-01T12:15:39.152Z,56.49
2023-03-01T12:16:39.969Z,55.46
2023-03-01T12:17:40.149Z,54.14
2023-03-01T12:18:39.144Z,54.63
2023-03-01T12:19:39.177Z,56.73
2023-03-01T12:20:39.131Z,54.66
2023-03-01T12:21:39.117Z,54.45
2023-03-01T12:22:39.103Z,55.26
2023-03-01T12:23:39.097Z,54.40
2023-03-01T12:24:39.077Z,52.26
2023-03-01T12:25:39.080Z,52.23
2023-03-01T12:26:39.065Z,52.88
2023-03-01T12:27:39.021Z,53.03
2023-03-01T12:28:39.062Z,52.21
2023-03-01T12:29:39.071Z,52.06
2023-03-01T12:30:39.043Z,54.06
2023-03-01T12:31:39.056Z,54.12
2023-03-01T12:32:39.050Z,53.45
2023-03-01T12:33:39.012Z,53.47
2023-03-01T12:34:38.970Z,57.60
2023-03-01T12:35:38.966Z,57.06
2023-03-01T12:36:38.985Z,55.33
2023-03-01T12:37:38.929Z,55.74
2023-03-01T12:38:39.076Z,55.13
2023-03-01T12:39:38.922Z,54.06
2023-03-01T12:40:38.908Z,54.58
2023-03-01T12:41:38.871Z,53.89
2023-03-01T12:42:38.896Z,54.32
2023-03-01T12:43:38.884Z,54.43
2023-03-01T12:44:38.852Z,55.77
2023-03-01T12:45:38.877Z,55.69
2023-03-01T12:46:38.828Z,57.45
2023-03-01T12:47:38.843Z,56.93
2023-03-01T12:48:38.826Z,56.65
2023-03-01T12:49:38.840Z,59.00
2023-03-01T12:50:38.792Z,57.45
2023-03-01T12:51:38.803Z,56.39
2023-03-01T12:52:38.770Z,57.17